sensor_id;sensor_type;location;lat;lon;timestamp;temperature;humidity
13186;DHT22;6658;53.080;7.428;2024-02-26T00:02:25;4.10;99.90
13186;DHT22;6658;53.080;7.428;2024-02-26T00:04:51;4.10;99.90
13186;DHT22;6658;53.080;7.428;2024-02-26T00:07:16;4.10;99.90
13186;DHT22;6658;53.080;7.428;2024-02-26T00:09:42;4.00;99.90
13186;DHT22;6658;53.080;7.428;2024-02-26T00:12:08;4.00;99.90
13186;DHT22;6658;53.080;7.428;2024-02-26T00:14:34;3.90;99.90
13186;DHT22;6658;53.080;7.428;2024-02-26T00:17:00;3.90;99.90
13186;DHT22;6658;53.080;7.428;2024-02-26T00:19:26;3.90;99.90
13186;DHT22;6658;53.080;7.428;2024-02-26T00:21:51;4.00;99.90
13186;DHT22;6658;53.080;7.428;2024-02-26T00:24:19;4.00;99.90
13186;DHT22;6658;53.080;7.428;2024-02-26T00:26:45;4.00;99.90
13186;DHT22;6658;53.080;7.428;2024-02-26T00:29:10;4.00;99.90
13186;DHT22;6658;53.080;7.428;2024-02-26T00:31:37;4.00;99.90
13186;DHT22;6658;53.080;7.428;2024-02-26T00:34:03;4.00;99.90
13186;DHT22;6658;53.080;7.428;2024-02-26T00:36:29;4.10;99.90
13186;DHT22;6658;53.080;7.428;2024-02-26T00:38:55;4.10;99.90
13186;DHT22;6658;53.080;7.428;2024-02-26T00:41:21;4.10;99.90
13186;DHT22;6658;53.080;7.428;2024-02-26T00:43:47;4.10;99.90
13186;DHT22;6658;53.080;7.428;2024-02-26T00:46:13;4.10;99.90
13186;DHT22;6658;53.080;7.428;2024-02-26T00:48:38;4.10;99.90
13186;DHT22;6658;53.080;7.428;2024-02-26T00:51:05;4.10;99.90
13186;DHT22;6658;53.080;7.428;2024-02-26T00:53:31;4.20;99.90
13186;DHT22;6658;53.080;7.428;2024-02-26T00:55:57;4.20;99.90
13186;DHT22;6658;53.080;7.428;2024-02-26T00:58:25;4.20;99.90
13186;DHT22;6658;53.080;7.428;2024-02-26T01:00:51;4.20;99.90
13186;DHT22;6658;53.080;7.428;2024-02-26T01:03:17;4.20;99.90
13186;DHT22;6658;53.080;7.428;2024-02-26T01:05:43;4.20;99.90
13186;DHT22;6658;53.080;7.428;2024-02-26T01:08:09;4.20;99.90
13186;DHT22;6658;53.080;7.428;2024-02-26T01:10:35;4.20;99.90
13186;DHT22;6658;53.080;7.428;2024-02-26T01:13:01;4.20;99.90
13186;DHT22;6658;53.080;7.428;2024-02-26T01:15:27;4.10;99.90
13186;DHT22;6658;53.080;7.428;2024-02-26T01:17:53;4.10;99.90
13186;DHT22;6658;53.080;7.428;2024-02-26T01:20:19;4.10;99.90
13186;DHT22;6658;53.080;7.428;2024-02-26T01:22:44;4.10;99.90
13186;DHT22;6658;53.080;7.428;2024-02-26T01:25:10;4.10;99.90
13186;DHT22;6658;53.080;7.428;2024-02-26T01:27:36;4.10;99.90
13186;DHT22;6658;53.080;7.428;2024-02-26T01:30:03;4.10;99.90
13186;DHT22;6658;53.080;7.428;2024-02-26T01:32:29;4.00;99.90
13186;DHT22;6658;53.080;7.428;2024-02-26T01:34:56;4.00;99.90
13186;DHT22;6658;53.080;7.428;2024-02-26T01:37:21;4.00;99.90
13186;DHT22;6658;53.080;7.428;2024-02-26T01:39:47;4.00;99.90
13186;DHT22;6658;53.080;7.428;2024-02-26T01:42:13;4.00;99.90
13186;DHT22;6658;53.080;7.428;2024-02-26T01:44:38;3.90;99.90
13186;DHT22;6658;53.080;7.428;2024-02-26T01:47:05;4.00;99.90
13186;DHT22;6658;53.080;7.428;2024-02-26T01:49:32;4.00;99.90
13186;DHT22;6658;53.080;7.428;2024-02-26T01:51:58;4.00;99.90
13186;DHT22;6658;53.080;7.428;2024-02-26T01:54:24;4.00;99.90
13186;DHT22;6658;53.080;7.428;2024-02-26T01:56:50;3.90;99.90
13186;DHT22;6658;53.080;7.428;2024-02-26T01:59:17;4.00;99.90
13186;DHT22;6658;53.080;7.428;2024-02-26T02:01:44;4.00;99.90
13186;DHT22;6658;53.080;7.428;2024-02-26T02:04:14;3.90;99.90
13186;DHT22;6658;53.080;7.428;2024-02-26T02:06:41;3.90;99.90
13186;DHT22;6658;53.080;7.428;2024-02-26T02:09:08;3.90;99.90
13186;DHT22;6658;53.080;7.428;2024-02-26T02:11:34;3.90;99.90
13186;DHT22;6658;53.080;7.428;2024-02-26T02:14:00;3.80;99.90
13186;DHT22;6658;53.080;7.428;2024-02-26T02:16:26;3.80;99.90
13186;DHT22;6658;53.080;7.428;2024-02-26T02:18:51;3.80;99.90
13186;DHT22;6658;53.080;7.428;2024-02-26T02:21:17;3.90;99.90
13186;DHT22;6658;53.080;7.428;2024-02-26T02:23:43;3.80;99.90
13186;DHT22;6658;53.080;7.428;2024-02-26T02:26:15;3.80;99.90
13186;DHT22;6658;53.080;7.428;2024-02-26T02:28:41;3.80;99.90
13186;DHT22;6658;53.080;7.428;2024-02-26T02:31:07;3.80;99.90
13186;DHT22;6658;53.080;7.428;2024-02-26T02:33:34;3.80;99.90
13186;DHT22;6658;53.080;7.428;2024-02-26T02:36:00;3.90;99.90
13186;DHT22;6658;53.080;7.428;2024-02-26T02:38:26;4.00;99.90
13186;DHT22;6658;53.080;7.428;2024-02-26T02:40:53;4.10;99.90
13186;DHT22;6658;53.080;7.428;2024-02-26T02:43:18;4.20;99.90
13186;DHT22;6658;53.080;7.428;2024-02-26T02:45:44;4.20;99.90
13186;DHT22;6658;53.080;7.428;2024-02-26T02:48:11;4.30;99.90
13186;DHT22;6658;53.080;7.428;2024-02-26T02:50:37;4.40;99.90
13186;DHT22;6658;53.080;7.428;2024-02-26T02:53:02;4.50;99.90
13186;DHT22;6658;53.080;7.428;2024-02-26T02:55:28;4.50;99.90
13186;DHT22;6658;53.080;7.428;2024-02-26T02:57:54;4.60;99.90
13186;DHT22;6658;53.080;7.428;2024-02-26T03:00:20;4.60;99.90
13186;DHT22;6658;53.080;7.428;2024-02-26T03:02:51;4.70;99.90
13186;DHT22;6658;53.080;7.428;2024-02-26T03:05:17;4.70;99.90
13186;DHT22;6658;53.080;7.428;2024-02-26T03:07:43;4.80;99.90
13186;DHT22;6658;53.080;7.428;2024-02-26T03:10:08;4.80;99.90
13186;DHT22;6658;53.080;7.428;2024-02-26T03:12:34;4.80;99.90
13186;DHT22;6658;53.080;7.428;2024-02-26T03:15:01;4.80;99.90
13186;DHT22;6658;53.080;7.428;2024-02-26T03:17:30;4.80;99.90
13186;DHT22;6658;53.080;7.428;2024-02-26T03:19:55;4.80;99.90
13186;DHT22;6658;53.080;7.428;2024-02-26T03:22:21;4.80;99.90
13186;DHT22;6658;53.080;7.428;2024-02-26T03:24:47;4.80;99.90
13186;DHT22;6658;53.080;7.428;2024-02-26T03:27:13;4.70;99.90
13186;DHT22;6658;53.080;7.428;2024-02-26T03:29:40;4.60;99.90
13186;DHT22;6658;53.080;7.428;2024-02-26T03:32:06;4.60;99.90
13186;DHT22;6658;53.080;7.428;2024-02-26T03:34:33;4.60;99.90
13186;DHT22;6658;53.080;7.428;2024-02-26T03:37:04;4.50;99.90
13186;DHT22;6658;53.080;7.428;2024-02-26T03:39:30;4.50;99.90
13186;DHT22;6658;53.080;7.428;2024-02-26T03:41:56;4.40;99.90
13186;DHT22;6658;53.080;7.428;2024-02-26T03:44:22;4.40;99.90
13186;DHT22;6658;53.080;7.428;2024-02-26T03:46:48;4.40;99.90
13186;DHT22;6658;53.080;7.428;2024-02-26T03:49:13;4.40;99.90
13186;DHT22;6658;53.080;7.428;2024-02-26T03:51:39;4.30;99.90
13186;DHT22;6658;53.080;7.428;2024-02-26T03:54:05;4.20;99.90
13186;DHT22;6658;53.080;7.428;2024-02-26T03:56:30;4.20;99.90
13186;DHT22;6658;53.080;7.428;2024-02-26T03:58:56;4.20;99.90
13186;DHT22;6658;53.080;7.428;2024-02-26T04:01:22;4.20;99.90
13186;DHT22;6658;53.080;7.428;2024-02-26T04:03:48;4.20;99.90
13186;DHT22;6658;53.080;7.428;2024-02-26T04:06:13;4.20;99.90
13186;DHT22;6658;53.080;7.428;2024-02-26T04:08:40;4.20;99.90
13186;DHT22;6658;53.080;7.428;2024-02-26T04:11:06;4.20;99.90
13186;DHT22;6658;53.080;7.428;2024-02-26T04:13:36;4.20;99.90
13186;DHT22;6658;53.080;7.428;2024-02-26T04:16:05;4.10;99.90
13186;DHT22;6658;53.080;7.428;2024-02-26T04:18:32;4.10;99.90
13186;DHT22;6658;53.080;7.428;2024-02-26T04:20:58;4.10;99.90
13186;DHT22;6658;53.080;7.428;2024-02-26T04:23:24;4.10;99.90
13186;DHT22;6658;53.080;7.428;2024-02-26T04:25:49;4.10;99.90
13186;DHT22;6658;53.080;7.428;2024-02-26T04:28:15;4.10;99.90
13186;DHT22;6658;53.080;7.428;2024-02-26T04:30:41;4.10;99.90
13186;DHT22;6658;53.080;7.428;2024-02-26T04:33:07;4.10;99.90
13186;DHT22;6658;53.080;7.428;2024-02-26T04:35:33;4.10;99.90
13186;DHT22;6658;53.080;7.428;2024-02-26T04:38:00;4.10;99.90
13186;DHT22;6658;53.080;7.428;2024-02-26T04:40:26;4.10;99.90
13186;DHT22;6658;53.080;7.428;2024-02-26T04:42:52;4.10;99.90
13186;DHT22;6658;53.080;7.428;2024-02-26T04:45:18;4.10;99.90
13186;DHT22;6658;53.080;7.428;2024-02-26T04:47:43;4.00;99.90
13186;DHT22;6658;53.080;7.428;2024-02-26T04:50:09;4.00;99.90
13186;DHT22;6658;53.080;7.428;2024-02-26T04:52:35;4.10;99.90
13186;DHT22;6658;53.080;7.428;2024-02-26T04:55:02;4.10;99.90
13186;DHT22;6658;53.080;7.428;2024-02-26T04:57:28;4.00;99.90
13186;DHT22;6658;53.080;7.428;2024-02-26T04:59:53;4.00;99.90
13186;DHT22;6658;53.080;7.428;2024-02-26T05:02:19;4.10;99.90
13186;DHT22;6658;53.080;7.428;2024-02-26T05:04:45;4.10;99.90
13186;DHT22;6658;53.080;7.428;2024-02-26T05:07:10;4.10;99.90
13186;DHT22;6658;53.080;7.428;2024-02-26T05:09:37;4.10;99.90
13186;DHT22;6658;53.080;7.428;2024-02-26T05:12:04;4.10;99.90
13186;DHT22;6658;53.080;7.428;2024-02-26T05:14:29;4.10;99.90
13186;DHT22;6658;53.080;7.428;2024-02-26T05:16:55;4.10;99.90
13186;DHT22;6658;53.080;7.428;2024-02-26T05:19:21;4.10;99.90
13186;DHT22;6658;53.080;7.428;2024-02-26T05:21:47;4.10;99.90
13186;DHT22;6658;53.080;7.428;2024-02-26T05:24:14;4.10;99.90
13186;DHT22;6658;53.080;7.428;2024-02-26T05:26:43;4.10;99.90
13186;DHT22;6658;53.080;7.428;2024-02-26T05:29:08;4.10;99.90
13186;DHT22;6658;53.080;7.428;2024-02-26T05:31:34;4.10;99.90
13186;DHT22;6658;53.080;7.428;2024-02-26T05:34:00;4.10;99.90
13186;DHT22;6658;53.080;7.428;2024-02-26T05:36:25;4.10;99.90
13186;DHT22;6658;53.080;7.428;2024-02-26T05:38:54;4.20;99.90
13186;DHT22;6658;53.080;7.428;2024-02-26T05:41:20;4.10;99.90
13186;DHT22;6658;53.080;7.428;2024-02-26T05:43:51;4.10;99.90
13186;DHT22;6658;53.080;7.428;2024-02-26T05:46:18;4.10;99.90
13186;DHT22;6658;53.080;7.428;2024-02-26T05:48:46;4.10;99.90
13186;DHT22;6658;53.080;7.428;2024-02-26T05:51:12;4.10;99.90
13186;DHT22;6658;53.080;7.428;2024-02-26T05:53:37;4.10;99.90
13186;DHT22;6658;53.080;7.428;2024-02-26T05:56:03;4.10;99.90
13186;DHT22;6658;53.080;7.428;2024-02-26T05:58:29;4.10;99.90
13186;DHT22;6658;53.080;7.428;2024-02-26T06:00:55;4.10;99.90
13186;DHT22;6658;53.080;7.428;2024-02-26T06:03:20;4.10;99.90
13186;DHT22;6658;53.080;7.428;2024-02-26T06:05:46;4.10;99.90
13186;DHT22;6658;53.080;7.428;2024-02-26T06:08:12;4.10;99.90
13186;DHT22;6658;53.080;7.428;2024-02-26T06:10:37;4.10;99.90
13186;DHT22;6658;53.080;7.428;2024-02-26T06:13:04;4.10;99.90
13186;DHT22;6658;53.080;7.428;2024-02-26T06:15:30;4.10;99.90
13186;DHT22;6658;53.080;7.428;2024-02-26T06:17:56;4.10;99.90
13186;DHT22;6658;53.080;7.428;2024-02-26T06:20:21;4.20;99.90
13186;DHT22;6658;53.080;7.428;2024-02-26T06:22:47;4.20;99.90
13186;DHT22;6658;53.080;7.428;2024-02-26T06:25:13;4.20;99.90
13186;DHT22;6658;53.080;7.428;2024-02-26T06:27:39;4.20;99.90
13186;DHT22;6658;53.080;7.428;2024-02-26T06:30:05;4.20;99.90
13186;DHT22;6658;53.080;7.428;2024-02-26T06:32:31;4.20;99.90
13186;DHT22;6658;53.080;7.428;2024-02-26T06:34:56;4.20;99.90
13186;DHT22;6658;53.080;7.428;2024-02-26T06:37:22;4.20;99.90
13186;DHT22;6658;53.080;7.428;2024-02-26T06:39:48;4.20;99.90
13186;DHT22;6658;53.080;7.428;2024-02-26T06:42:13;4.20;99.90
13186;DHT22;6658;53.080;7.428;2024-02-26T06:44:39;4.20;99.90
13186;DHT22;6658;53.080;7.428;2024-02-26T06:47:05;4.20;99.90
13186;DHT22;6658;53.080;7.428;2024-02-26T06:49:31;4.30;99.90
13186;DHT22;6658;53.080;7.428;2024-02-26T06:51:57;4.30;99.90
13186;DHT22;6658;53.080;7.428;2024-02-26T06:54:22;4.30;99.90
13186;DHT22;6658;53.080;7.428;2024-02-26T06:56:48;4.30;99.90
13186;DHT22;6658;53.080;7.428;2024-02-26T06:59:14;4.30;99.90
13186;DHT22;6658;53.080;7.428;2024-02-26T07:01:42;4.30;99.90
13186;DHT22;6658;53.080;7.428;2024-02-26T07:04:08;4.30;99.90
13186;DHT22;6658;53.080;7.428;2024-02-26T07:06:36;4.40;99.90
13186;DHT22;6658;53.080;7.428;2024-02-26T07:09:02;4.40;99.90
13186;DHT22;6658;53.080;7.428;2024-02-26T07:11:28;4.40;99.90
13186;DHT22;6658;53.080;7.428;2024-02-26T07:13:53;4.40;99.90
13186;DHT22;6658;53.080;7.428;2024-02-26T07:16:19;4.40;99.90
13186;DHT22;6658;53.080;7.428;2024-02-26T07:18:45;4.40;99.90
13186;DHT22;6658;53.080;7.428;2024-02-26T07:21:12;4.40;99.90
13186;DHT22;6658;53.080;7.428;2024-02-26T07:23:37;4.40;99.90
13186;DHT22;6658;53.080;7.428;2024-02-26T07:26:03;4.40;99.90
13186;DHT22;6658;53.080;7.428;2024-02-26T07:28:29;4.40;99.90
13186;DHT22;6658;53.080;7.428;2024-02-26T07:30:55;4.50;99.90
13186;DHT22;6658;53.080;7.428;2024-02-26T07:33:21;4.50;99.90
13186;DHT22;6658;53.080;7.428;2024-02-26T07:35:46;4.40;99.90
13186;DHT22;6658;53.080;7.428;2024-02-26T07:38:12;4.50;99.90
13186;DHT22;6658;53.080;7.428;2024-02-26T07:40:39;4.50;99.90
13186;DHT22;6658;53.080;7.428;2024-02-26T07:43:04;4.50;99.90
13186;DHT22;6658;53.080;7.428;2024-02-26T07:45:30;4.50;99.90
13186;DHT22;6658;53.080;7.428;2024-02-26T07:47:56;4.50;99.90
13186;DHT22;6658;53.080;7.428;2024-02-26T07:50:21;4.60;99.90
13186;DHT22;6658;53.080;7.428;2024-02-26T07:52:47;4.60;99.90
13186;DHT22;6658;53.080;7.428;2024-02-26T07:55:13;4.60;99.90
13186;DHT22;6658;53.080;7.428;2024-02-26T07:57:43;4.60;99.90
13186;DHT22;6658;53.080;7.428;2024-02-26T08:00:09;4.60;99.90
13186;DHT22;6658;53.080;7.428;2024-02-26T08:02:38;4.70;99.90
13186;DHT22;6658;53.080;7.428;2024-02-26T08:05:04;4.70;99.90
13186;DHT22;6658;53.080;7.428;2024-02-26T08:07:30;4.60;99.90
13186;DHT22;6658;53.080;7.428;2024-02-26T08:09:56;4.70;99.90
13186;DHT22;6658;53.080;7.428;2024-02-26T08:12:21;4.70;99.90
13186;DHT22;6658;53.080;7.428;2024-02-26T08:14:47;4.70;99.90
13186;DHT22;6658;53.080;7.428;2024-02-26T08:17:12;4.80;99.90
13186;DHT22;6658;53.080;7.428;2024-02-26T08:19:38;4.80;99.90
13186;DHT22;6658;53.080;7.428;2024-02-26T08:22:04;4.80;99.90
13186;DHT22;6658;53.080;7.428;2024-02-26T08:24:30;4.80;99.90
13186;DHT22;6658;53.080;7.428;2024-02-26T08:26:55;4.90;99.90
13186;DHT22;6658;53.080;7.428;2024-02-26T08:29:21;4.90;99.90
13186;DHT22;6658;53.080;7.428;2024-02-26T08:31:47;4.90;99.90
13186;DHT22;6658;53.080;7.428;2024-02-26T08:34:13;4.90;99.90
13186;DHT22;6658;53.080;7.428;2024-02-26T08:36:39;5.00;99.90
13186;DHT22;6658;53.080;7.428;2024-02-26T08:39:05;5.00;99.90
13186;DHT22;6658;53.080;7.428;2024-02-26T08:41:30;5.00;99.90
13186;DHT22;6658;53.080;7.428;2024-02-26T08:43:56;5.10;99.90
13186;DHT22;6658;53.080;7.428;2024-02-26T08:46:23;5.10;99.90
13186;DHT22;6658;53.080;7.428;2024-02-26T08:48:49;5.10;99.90
13186;DHT22;6658;53.080;7.428;2024-02-26T08:51:15;5.10;99.90
13186;DHT22;6658;53.080;7.428;2024-02-26T08:53:40;5.20;99.90
13186;DHT22;6658;53.080;7.428;2024-02-26T08:56:06;5.20;99.90
13186;DHT22;6658;53.080;7.428;2024-02-26T08:58:32;5.20;99.90
13186;DHT22;6658;53.080;7.428;2024-02-26T09:00:57;5.20;99.90
13186;DHT22;6658;53.080;7.428;2024-02-26T09:03:23;5.30;99.90
13186;DHT22;6658;53.080;7.428;2024-02-26T09:05:49;5.30;99.90
13186;DHT22;6658;53.080;7.428;2024-02-26T09:08:15;5.30;99.90
13186;DHT22;6658;53.080;7.428;2024-02-26T09:10:41;5.30;99.90
13186;DHT22;6658;53.080;7.428;2024-02-26T09:13:07;5.40;99.90
13186;DHT22;6658;53.080;7.428;2024-02-26T09:15:33;5.40;99.90
13186;DHT22;6658;53.080;7.428;2024-02-26T09:17:58;5.50;99.90
13186;DHT22;6658;53.080;7.428;2024-02-26T09:20:24;5.50;99.90
13186;DHT22;6658;53.080;7.428;2024-02-26T09:22:50;5.60;99.90
13186;DHT22;6658;53.080;7.428;2024-02-26T09:25:17;5.60;99.90
13186;DHT22;6658;53.080;7.428;2024-02-26T09:27:43;5.60;99.90
13186;DHT22;6658;53.080;7.428;2024-02-26T09:30:10;5.60;99.90
13186;DHT22;6658;53.080;7.428;2024-02-26T09:32:36;5.60;99.90
13186;DHT22;6658;53.080;7.428;2024-02-26T09:35:02;5.70;99.90
13186;DHT22;6658;53.080;7.428;2024-02-26T09:37:28;5.70;99.90
13186;DHT22;6658;53.080;7.428;2024-02-26T09:39:54;5.70;99.90
13186;DHT22;6658;53.080;7.428;2024-02-26T09:42:20;5.70;99.90
13186;DHT22;6658;53.080;7.428;2024-02-26T09:44:46;5.70;99.90
13186;DHT22;6658;53.080;7.428;2024-02-26T09:47:14;5.80;99.90
13186;DHT22;6658;53.080;7.428;2024-02-26T09:49:43;5.80;99.90
13186;DHT22;6658;53.080;7.428;2024-02-26T09:52:09;5.80;99.90
13186;DHT22;6658;53.080;7.428;2024-02-26T09:54:35;5.80;99.90
13186;DHT22;6658;53.080;7.428;2024-02-26T09:57:03;5.80;99.90
13186;DHT22;6658;53.080;7.428;2024-02-26T09:59:42;5.80;99.90
13186;DHT22;6658;53.080;7.428;2024-02-26T10:02:15;5.80;99.90
13186;DHT22;6658;53.080;7.428;2024-02-26T10:04:41;5.80;99.90
13186;DHT22;6658;53.080;7.428;2024-02-26T10:07:12;5.80;99.90
13186;DHT22;6658;53.080;7.428;2024-02-26T10:09:38;5.90;99.90
13186;DHT22;6658;53.080;7.428;2024-02-26T10:12:05;5.90;99.90
13186;DHT22;6658;53.080;7.428;2024-02-26T10:14:32;5.90;99.90
13186;DHT22;6658;53.080;7.428;2024-02-26T10:16:59;6.00;99.90
13186;DHT22;6658;53.080;7.428;2024-02-26T10:19:30;6.00;99.90
13186;DHT22;6658;53.080;7.428;2024-02-26T10:22:00;6.20;99.90
13186;DHT22;6658;53.080;7.428;2024-02-26T10:24:29;6.20;99.90
13186;DHT22;6658;53.080;7.428;2024-02-26T10:26:56;6.20;99.90
13186;DHT22;6658;53.080;7.428;2024-02-26T10:29:24;6.30;99.90
13186;DHT22;6658;53.080;7.428;2024-02-26T10:31:51;6.30;99.90
13186;DHT22;6658;53.080;7.428;2024-02-26T10:34:18;6.40;99.90
13186;DHT22;6658;53.080;7.428;2024-02-26T10:36:43;6.30;99.90
13186;DHT22;6658;53.080;7.428;2024-02-26T10:39:13;6.40;99.90
13186;DHT22;6658;53.080;7.428;2024-02-26T10:41:43;6.40;99.90
13186;DHT22;6658;53.080;7.428;2024-02-26T10:44:10;6.50;99.90
13186;DHT22;6658;53.080;7.428;2024-02-26T10:46:47;6.60;99.90
13186;DHT22;6658;53.080;7.428;2024-02-26T10:49:15;6.50;99.90
13186;DHT22;6658;53.080;7.428;2024-02-26T10:51:45;6.60;99.90
13186;DHT22;6658;53.080;7.428;2024-02-26T10:54:15;6.60;99.90
13186;DHT22;6658;53.080;7.428;2024-02-26T10:56:42;6.70;99.90
13186;DHT22;6658;53.080;7.428;2024-02-26T10:59:09;6.80;99.90
13186;DHT22;6658;53.080;7.428;2024-02-26T11:01:36;6.80;99.90
13186;DHT22;6658;53.080;7.428;2024-02-26T11:04:07;6.80;99.90
13186;DHT22;6658;53.080;7.428;2024-02-26T11:06:34;6.80;99.90
13186;DHT22;6658;53.080;7.428;2024-02-26T11:09:02;6.70;99.90
13186;DHT22;6658;53.080;7.428;2024-02-26T11:11:31;6.80;99.90
13186;DHT22;6658;53.080;7.428;2024-02-26T11:13:57;6.80;99.90
13186;DHT22;6658;53.080;7.428;2024-02-26T11:16:26;6.90;99.90
13186;DHT22;6658;53.080;7.428;2024-02-26T11:18:53;6.90;99.90
13186;DHT22;6658;53.080;7.428;2024-02-26T11:21:21;6.90;99.90
13186;DHT22;6658;53.080;7.428;2024-02-26T11:24:13;6.90;99.90
13186;DHT22;6658;53.080;7.428;2024-02-26T11:26:50;6.80;99.90
13186;DHT22;6658;53.080;7.428;2024-02-26T11:29:22;6.80;99.90
13186;DHT22;6658;53.080;7.428;2024-02-26T11:31:48;6.80;99.90
13186;DHT22;6658;53.080;7.428;2024-02-26T11:34:14;6.90;99.90
13186;DHT22;6658;53.080;7.428;2024-02-26T11:36:40;6.90;99.90
13186;DHT22;6658;53.080;7.428;2024-02-26T11:39:08;7.00;99.90
13186;DHT22;6658;53.080;7.428;2024-02-26T11:41:33;7.00;99.90
13186;DHT22;6658;53.080;7.428;2024-02-26T11:44:01;7.00;99.90
13186;DHT22;6658;53.080;7.428;2024-02-26T11:46:31;7.10;99.90
13186;DHT22;6658;53.080;7.428;2024-02-26T11:49:03;7.20;99.90
13186;DHT22;6658;53.080;7.428;2024-02-26T11:51:33;7.10;99.90
13186;DHT22;6658;53.080;7.428;2024-02-26T11:54:00;7.00;99.90
13186;DHT22;6658;53.080;7.428;2024-02-26T11:56:26;7.00;99.90
13186;DHT22;6658;53.080;7.428;2024-02-26T11:59:37;7.10;99.90
13186;DHT22;6658;53.080;7.428;2024-02-26T12:02:03;7.10;99.90
13186;DHT22;6658;53.080;7.428;2024-02-26T12:04:30;7.20;99.90
13186;DHT22;6658;53.080;7.428;2024-02-26T12:06:57;7.20;99.90
13186;DHT22;6658;53.080;7.428;2024-02-26T12:09:38;7.30;99.90
13186;DHT22;6658;53.080;7.428;2024-02-26T12:12:08;7.30;99.90
13186;DHT22;6658;53.080;7.428;2024-02-26T12:14:40;7.30;99.90
13186;DHT22;6658;53.080;7.428;2024-02-26T12:17:20;7.50;99.90
13186;DHT22;6658;53.080;7.428;2024-02-26T12:19:46;7.50;99.90
13186;DHT22;6658;53.080;7.428;2024-02-26T12:22:15;7.60;99.90
13186;DHT22;6658;53.080;7.428;2024-02-26T12:24:41;7.70;99.90
13186;DHT22;6658;53.080;7.428;2024-02-26T12:27:07;7.80;99.90
13186;DHT22;6658;53.080;7.428;2024-02-26T12:29:33;7.80;99.90
13186;DHT22;6658;53.080;7.428;2024-02-26T12:31:59;7.80;99.90
13186;DHT22;6658;53.080;7.428;2024-02-26T12:34:25;7.70;99.90
13186;DHT22;6658;53.080;7.428;2024-02-26T12:36:53;7.60;99.90
13186;DHT22;6658;53.080;7.428;2024-02-26T12:39:19;7.50;99.90
13186;DHT22;6658;53.080;7.428;2024-02-26T12:41:46;7.50;99.90
13186;DHT22;6658;53.080;7.428;2024-02-26T12:44:18;7.40;99.90
13186;DHT22;6658;53.080;7.428;2024-02-26T12:46:49;7.30;99.90
13186;DHT22;6658;53.080;7.428;2024-02-26T12:49:16;7.30;99.90
13186;DHT22;6658;53.080;7.428;2024-02-26T12:51:45;7.30;99.90
13186;DHT22;6658;53.080;7.428;2024-02-26T12:54:11;7.40;99.90
13186;DHT22;6658;53.080;7.428;2024-02-26T12:56:38;7.40;99.90
13186;DHT22;6658;53.080;7.428;2024-02-26T12:59:04;7.40;99.90
13186;DHT22;6658;53.080;7.428;2024-02-26T13:01:30;7.30;99.90
13186;DHT22;6658;53.080;7.428;2024-02-26T13:03:56;7.30;99.90
13186;DHT22;6658;53.080;7.428;2024-02-26T13:06:22;7.30;99.90
13186;DHT22;6658;53.080;7.428;2024-02-26T13:08:48;7.30;99.90
13186;DHT22;6658;53.080;7.428;2024-02-26T13:11:15;7.20;99.90
13186;DHT22;6658;53.080;7.428;2024-02-26T13:13:41;7.20;99.90
13186;DHT22;6658;53.080;7.428;2024-02-26T13:16:10;7.30;99.90
13186;DHT22;6658;53.080;7.428;2024-02-26T13:18:36;7.10;99.90
13186;DHT22;6658;53.080;7.428;2024-02-26T13:21:08;7.10;99.90
13186;DHT22;6658;53.080;7.428;2024-02-26T13:23:35;7.10;99.90
13186;DHT22;6658;53.080;7.428;2024-02-26T13:26:00;7.10;99.90
13186;DHT22;6658;53.080;7.428;2024-02-26T13:28:26;7.10;99.90
13186;DHT22;6658;53.080;7.428;2024-02-26T13:30:57;7.00;99.90
13186;DHT22;6658;53.080;7.428;2024-02-26T13:33:24;6.90;99.90
13186;DHT22;6658;53.080;7.428;2024-02-26T13:35:50;6.80;99.90
13186;DHT22;6658;53.080;7.428;2024-02-26T13:38:16;6.80;99.90
13186;DHT22;6658;53.080;7.428;2024-02-26T13:40:42;6.80;99.90
13186;DHT22;6658;53.080;7.428;2024-02-26T13:43:08;6.80;99.90
13186;DHT22;6658;53.080;7.428;2024-02-26T13:45:35;6.70;99.90
13186;DHT22;6658;53.080;7.428;2024-02-26T13:48:19;6.70;99.90
13186;DHT22;6658;53.080;7.428;2024-02-26T13:50:45;6.70;99.90
13186;DHT22;6658;53.080;7.428;2024-02-26T13:53:11;6.70;99.90
13186;DHT22;6658;53.080;7.428;2024-02-26T13:55:38;6.70;99.90
13186;DHT22;6658;53.080;7.428;2024-02-26T13:58:05;6.70;99.90
13186;DHT22;6658;53.080;7.428;2024-02-26T14:00:32;6.60;99.90
13186;DHT22;6658;53.080;7.428;2024-02-26T14:03:00;6.60;99.90
13186;DHT22;6658;53.080;7.428;2024-02-26T14:05:25;6.60;99.90
13186;DHT22;6658;53.080;7.428;2024-02-26T14:07:52;6.60;99.90
13186;DHT22;6658;53.080;7.428;2024-02-26T14:10:18;6.60;99.90
13186;DHT22;6658;53.080;7.428;2024-02-26T14:12:44;6.60;99.90
13186;DHT22;6658;53.080;7.428;2024-02-26T14:15:10;6.50;99.90
13186;DHT22;6658;53.080;7.428;2024-02-26T14:17:36;6.60;99.90
13186;DHT22;6658;53.080;7.428;2024-02-26T14:20:02;6.60;99.90
13186;DHT22;6658;53.080;7.428;2024-02-26T14:22:28;6.50;99.90
13186;DHT22;6658;53.080;7.428;2024-02-26T14:24:56;6.50;99.90
13186;DHT22;6658;53.080;7.428;2024-02-26T14:27:22;6.50;99.90
13186;DHT22;6658;53.080;7.428;2024-02-26T14:29:48;6.50;99.90
13186;DHT22;6658;53.080;7.428;2024-02-26T14:32:14;6.50;99.90
13186;DHT22;6658;53.080;7.428;2024-02-26T14:34:41;6.50;99.90
13186;DHT22;6658;53.080;7.428;2024-02-26T14:37:07;6.50;99.90
13186;DHT22;6658;53.080;7.428;2024-02-26T14:39:33;6.60;99.90
13186;DHT22;6658;53.080;7.428;2024-02-26T14:41:59;6.60;99.90
13186;DHT22;6658;53.080;7.428;2024-02-26T14:44:25;6.60;99.90
13186;DHT22;6658;53.080;7.428;2024-02-26T14:46:51;6.60;99.90
13186;DHT22;6658;53.080;7.428;2024-02-26T14:49:17;6.50;99.90
13186;DHT22;6658;53.080;7.428;2024-02-26T14:51:43;6.50;99.90
13186;DHT22;6658;53.080;7.428;2024-02-26T14:54:13;6.50;99.90
13186;DHT22;6658;53.080;7.428;2024-02-26T14:56:39;6.40;99.90
13186;DHT22;6658;53.080;7.428;2024-02-26T14:59:05;6.40;99.90
13186;DHT22;6658;53.080;7.428;2024-02-26T15:01:32;6.40;99.90
13186;DHT22;6658;53.080;7.428;2024-02-26T15:03:58;6.50;99.90
13186;DHT22;6658;53.080;7.428;2024-02-26T15:06:24;6.50;99.90
13186;DHT22;6658;53.080;7.428;2024-02-26T15:08:51;6.50;99.90
13186;DHT22;6658;53.080;7.428;2024-02-26T15:11:16;6.50;99.90
13186;DHT22;6658;53.080;7.428;2024-02-26T15:13:42;6.50;99.90
13186;DHT22;6658;53.080;7.428;2024-02-26T15:16:08;6.40;99.90
13186;DHT22;6658;53.080;7.428;2024-02-26T15:18:34;6.40;99.90
13186;DHT22;6658;53.080;7.428;2024-02-26T15:21:02;6.40;99.90
13186;DHT22;6658;53.080;7.428;2024-02-26T15:23:28;6.50;99.90
13186;DHT22;6658;53.080;7.428;2024-02-26T15:25:54;6.50;99.90
13186;DHT22;6658;53.080;7.428;2024-02-26T15:28:20;6.50;99.90
13186;DHT22;6658;53.080;7.428;2024-02-26T15:30:46;6.50;99.90
13186;DHT22;6658;53.080;7.428;2024-02-26T15:33:13;6.50;99.90
13186;DHT22;6658;53.080;7.428;2024-02-26T15:35:40;6.40;99.90
13186;DHT22;6658;53.080;7.428;2024-02-26T15:38:07;6.40;99.90
13186;DHT22;6658;53.080;7.428;2024-02-26T15:40:33;6.40;99.90
13186;DHT22;6658;53.080;7.428;2024-02-26T15:42:59;6.40;99.90
13186;DHT22;6658;53.080;7.428;2024-02-26T15:45:24;6.40;99.90
13186;DHT22;6658;53.080;7.428;2024-02-26T15:47:50;6.30;99.90
13186;DHT22;6658;53.080;7.428;2024-02-26T15:50:16;6.30;99.90
13186;DHT22;6658;53.080;7.428;2024-02-26T15:52:41;6.20;99.90
13186;DHT22;6658;53.080;7.428;2024-02-26T15:55:07;6.20;99.90
13186;DHT22;6658;53.080;7.428;2024-02-26T15:57:33;6.20;99.90
13186;DHT22;6658;53.080;7.428;2024-02-26T16:00:00;6.20;99.90